createdAt,value
2017-11-07T00:01:38.071Z,8.48
2017-11-07T00:04:04.635Z,9.95
2017-11-07T00:06:31.223Z,11.18
2017-11-07T00:08:58.002Z,10.45
2017-11-07T00:11:24.575Z,11.90
2017-11-07T00:13:51.139Z,12.65
2017-11-07T00:16:17.875Z,11.70
2017-11-07T00:18:44.803Z,11.63
2017-11-07T00:21:11.731Z,10.07
2017-11-07T00:23:38.787Z,9.48
2017-11-07T00:26:05.355Z,10.50
2017-11-07T00:28:31.900Z,12.68
2017-11-07T00:30:58.507Z,12.25
2017-11-07T00:33:25.052Z,11.88
2017-11-07T00:35:51.979Z,12.10
2017-11-07T00:38:18.938Z,12.48
2017-11-07T00:40:45.523Z,10.02
2017-11-07T00:43:12.466Z,12.90
2017-11-07T00:45:39.190Z,13.57
2017-11-07T00:48:05.754Z,10.25
2017-11-07T00:50:32.299Z,12.00
2017-11-07T00:52:58.920Z,10.90
2017-11-07T00:55:25.490Z,11.15
2017-11-07T00:57:52.031Z,11.70
2017-11-07T01:00:18.780Z,13.75
2017-11-07T01:02:45.359Z,11.57
2017-11-07T01:05:11.914Z,14.82
2017-11-07T01:07:38.537Z,14.40
2017-11-07T01:10:05.112Z,14.27
2017-11-07T01:12:31.679Z,16.73
2017-11-07T01:14:58.310Z,16.10
2017-11-07T01:17:24.846Z,15.52
2017-11-07T01:19:51.403Z,16.23
2017-11-07T01:22:18.030Z,16.30
2017-11-07T01:24:44.596Z,18.23
2017-11-07T01:27:11.541Z,18.02
2017-11-07T01:29:38.159Z,18.30
2017-11-07T01:32:05.099Z,19.20
2017-11-07T01:34:31.653Z,19.50
2017-11-07T01:36:58.302Z,20.20
2017-11-07T01:39:24.863Z,17.20
2017-11-07T01:41:51.415Z,19.73
2017-11-07T01:44:18.220Z,20.30
2017-11-07T01:46:44.830Z,22.67
2017-11-07T01:49:11.450Z,22.87
2017-11-07T01:51:38.076Z,22.40
2017-11-07T01:54:04.626Z,18.77
2017-11-07T01:56:31.195Z,18.23
2017-11-07T01:58:58.280Z,22.90
2017-11-07T02:01:24.950Z,19.65
2017-11-07T02:03:51.519Z,22.95
2017-11-07T02:06:18.126Z,19.05
2017-11-07T02:08:44.771Z,22.13
2017-11-07T02:11:11.351Z,20.40
2017-11-07T02:13:38.000Z,20.75
2017-11-07T02:16:04.615Z,18.42
2017-11-07T02:18:31.215Z,18.87
2017-11-07T02:20:57.992Z,22.60
2017-11-07T02:23:24.619Z,20.05
2017-11-07T02:25:51.236Z,21.20
2017-11-07T02:28:17.919Z,20.60
2017-11-07T02:30:44.546Z,16.02
2017-11-07T02:33:11.194Z,16.58
2017-11-07T02:35:37.872Z,19.67
2017-11-07T02:38:04.515Z,20.70
2017-11-07T02:40:31.102Z,19.65
2017-11-07T02:42:57.759Z,18.80
2017-11-07T02:45:24.373Z,16.65
2017-11-07T02:47:50.999Z,20.30
2017-11-07T02:50:17.610Z,20.50
2017-11-07T02:52:44.236Z,20.50
2017-11-07T02:55:10.815Z,20.85
2017-11-07T02:57:37.836Z,18.95
2017-11-07T03:00:04.470Z,21.52
2017-11-07T03:02:31.387Z,19.02
2017-11-07T03:04:58.359Z,18.05
2017-11-07T03:07:24.913Z,18.80
2017-11-07T03:09:51.471Z,20.75
2017-11-07T03:12:18.088Z,22.00
2017-11-07T03:14:45.027Z,17.70
2017-11-07T03:17:11.570Z,20.02
2017-11-07T03:19:38.181Z,19.23
2017-11-07T03:22:04.739Z,19.90
2017-11-07T03:36:42.735Z,20.33
2017-11-07T03:39:09.302Z,22.00
2017-11-07T03:41:35.859Z,20.33
2017-11-07T03:44:02.474Z,23.27
2017-11-07T03:46:29.022Z,20.40
2017-11-07T03:48:55.615Z,21.75
2017-11-07T03:51:22.256Z,20.48
2017-11-07T03:53:48.822Z,20.85
2017-11-07T03:56:15.395Z,22.30
2017-11-07T03:58:41.996Z,20.88
2017-11-07T04:01:08.563Z,19.30
2017-11-07T04:03:35.500Z,20.83
2017-11-07T04:06:02.186Z,23.10
2017-11-07T04:08:28.736Z,23.45
2017-11-07T04:10:55.650Z,19.52
2017-11-07T04:13:22.263Z,19.92
2017-11-07T04:15:48.814Z,21.80
2017-11-07T04:18:15.371Z,20.77
2017-11-07T04:20:41.963Z,21.60
2017-11-07T04:23:08.527Z,19.25
2017-11-07T04:25:35.084Z,19.15
2017-11-07T04:28:02.097Z,20.55
2017-11-07T04:30:29.028Z,18.73
2017-11-07T04:32:55.571Z,21.60
2017-11-07T04:35:22.199Z,21.55
2017-11-07T04:37:48.774Z,18.80
2017-11-07T04:40:15.367Z,20.45
2017-11-07T04:42:42.186Z,19.05
2017-11-07T04:45:08.743Z,17.92
2017-11-07T04:47:42.135Z,19.33
2017-11-07T04:50:08.774Z,17.92
2017-11-07T04:52:35.711Z,20.37
2017-11-07T04:55:02.340Z,18.52
2017-11-07T04:57:28.903Z,19.40
2017-11-07T04:59:55.463Z,17.58
2017-11-07T05:02:22.624Z,19.17
2017-11-07T05:04:49.190Z,19.48
2017-11-07T05:07:15.754Z,17.15
2017-11-07T05:09:42.353Z,19.55
2017-11-07T05:12:09.300Z,18.00
2017-11-07T05:14:35.879Z,17.48
2017-11-07T05:17:02.527Z,17.30
2017-11-07T05:19:29.460Z,19.67
2017-11-07T05:21:56.027Z,18.83
2017-11-07T05:24:22.752Z,19.05
2017-11-07T05:26:49.307Z,20.20
2017-11-07T05:29:16.241Z,17.30
2017-11-07T05:31:43.227Z,17.50
2017-11-07T05:34:09.783Z,15.95
2017-11-07T05:36:36.342Z,17.15
2017-11-07T05:39:03.099Z,15.45
2017-11-07T05:41:29.656Z,15.23
2017-11-07T05:43:56.585Z,15.88
2017-11-07T05:46:23.755Z,16.80
2017-11-07T05:48:50.347Z,14.95
2017-11-07T05:51:17.048Z,16.37
2017-11-07T05:53:43.830Z,16.60
2017-11-07T05:56:10.383Z,16.80
2017-11-07T05:58:36.944Z,17.65
2017-11-07T06:01:03.680Z,14.13
2017-11-07T06:03:30.250Z,17.25
2017-11-07T06:05:56.807Z,16.77
2017-11-07T06:08:23.425Z,18.08
2017-11-07T06:10:49.979Z,15.40
2017-11-07T06:13:16.528Z,16.70
2017-11-07T06:15:43.143Z,17.05
2017-11-07T06:18:09.755Z,17.30
2017-11-07T06:20:36.323Z,20.25
2017-11-07T06:23:02.926Z,17.30
2017-11-07T06:25:29.843Z,17.20
2017-11-07T06:27:56.423Z,17.75
2017-11-07T06:30:23.067Z,17.12
2017-11-07T06:32:49.624Z,15.43
2017-11-07T06:35:16.556Z,15.48
2017-11-07T06:37:43.536Z,17.62
2017-11-07T06:40:10.091Z,18.02
2017-11-07T06:42:37.026Z,16.33
2017-11-07T06:45:04.119Z,17.30
2017-11-07T06:47:30.682Z,18.20
2017-11-07T06:49:57.614Z,20.00
2017-11-07T06:52:24.704Z,19.27
2017-11-07T06:54:51.270Z,21.87
2017-11-07T06:57:17.839Z,19.65
2017-11-07T06:59:44.491Z,20.00
2017-11-07T07:02:11.484Z,20.70
2017-11-07T07:04:38.051Z,20.58
2017-11-07T07:07:05.159Z,19.90
2017-11-07T07:09:31.756Z,19.27
2017-11-07T07:11:58.313Z,21.05
2017-11-07T07:14:25.037Z,22.35
2017-11-07T07:16:51.594Z,21.05
2017-11-07T07:19:18.143Z,21.48
2017-11-07T07:21:44.738Z,22.33
2017-11-07T07:24:11.295Z,20.55
2017-11-07T07:26:37.843Z,23.48
2017-11-07T07:29:04.826Z,21.15
2017-11-07T07:31:31.379Z,20.30
2017-11-07T07:33:57.934Z,19.30
2017-11-07T07:36:24.599Z,19.83
2017-11-07T07:38:51.151Z,20.75
2017-11-07T07:41:18.076Z,20.17
2017-11-07T07:43:45.082Z,20.10
2017-11-07T07:46:11.682Z,21.85
2017-11-07T07:48:45.239Z,21.87
2017-11-07T07:51:11.814Z,21.42
2017-11-07T07:53:38.450Z,21.37
2017-11-07T07:56:05.216Z,22.17
2017-11-07T07:58:31.767Z,22.08
2017-11-07T08:00:58.362Z,22.05
2017-11-07T08:03:25.040Z,20.77
2017-11-07T08:05:52.045Z,19.67
2017-11-07T08:08:18.716Z,21.08
2017-11-07T08:10:45.347Z,21.40
2017-11-07T08:13:11.951Z,23.50
2017-11-07T08:15:38.590Z,22.75
2017-11-07T08:18:05.270Z,22.92
2017-11-07T08:20:31.847Z,22.70
2017-11-07T08:22:58.427Z,23.40
2017-11-07T08:25:25.799Z,25.62
2017-11-07T08:27:52.363Z,22.85
2017-11-07T08:30:18.923Z,22.40
2017-11-07T08:32:45.545Z,25.50
2017-11-07T08:35:12.104Z,23.35
2017-11-07T08:37:38.668Z,22.75
2017-11-07T08:40:05.655Z,24.73
2017-11-07T08:42:32.212Z,22.35
2017-11-07T08:44:58.766Z,22.55
2017-11-07T08:47:25.389Z,23.38
2017-11-07T08:49:51.947Z,24.50
2017-11-07T08:52:18.515Z,24.70
2017-11-07T08:54:45.366Z,23.15
2017-11-07T08:57:12.007Z,24.02
2017-11-07T08:59:38.572Z,24.75
2017-11-07T09:02:05.574Z,24.40
2017-11-07T09:04:32.127Z,25.23
2017-11-07T09:06:58.695Z,24.67
2017-11-07T09:09:25.330Z,24.63
2017-11-07T09:11:51.900Z,24.33
2017-11-07T09:14:18.528Z,25.83
2017-11-07T09:16:45.152Z,23.10
2017-11-07T09:19:11.742Z,25.77
2017-11-07T09:21:38.709Z,24.17
2017-11-07T09:24:05.352Z,24.65
2017-11-07T09:26:31.901Z,23.42
2017-11-07T09:28:58.827Z,25.75
2017-11-07T09:31:25.800Z,25.20
2017-11-07T09:33:52.377Z,24.45
2017-11-07T09:36:19.407Z,23.98
2017-11-07T09:38:46.363Z,23.85
2017-11-07T09:46:54.400Z,23.23
2017-11-07T09:49:20.957Z,26.87
2017-11-07T09:51:47.520Z,25.12
2017-11-07T09:54:14.137Z,25.35
2017-11-07T09:56:40.737Z,21.62
2017-11-07T09:59:07.303Z,24.17
2017-11-07T10:01:33.896Z,23.20
2017-11-07T10:04:00.447Z,22.27
2017-11-07T10:06:27.036Z,22.02
2017-11-07T10:08:53.599Z,21.92
2017-11-07T10:11:20.187Z,23.83
2017-11-07T10:13:46.752Z,28.30
2017-11-07T10:16:13.750Z,25.70
2017-11-07T10:18:40.336Z,26.73
2017-11-07T10:21:06.927Z,24.52
2017-11-07T10:23:33.572Z,23.80
2017-11-07T10:26:00.225Z,24.85
2017-11-07T10:28:26.824Z,25.00
2017-11-07T10:30:53.443Z,24.95
2017-11-07T10:33:20.059Z,24.45
2017-11-07T10:35:46.676Z,23.05
2017-11-07T10:38:13.312Z,26.65
2017-11-07T10:40:39.905Z,27.83
2017-11-07T10:43:06.487Z,27.35
2017-11-07T10:45:33.139Z,27.37
2017-11-07T10:47:59.787Z,27.05
2017-11-07T10:50:26.343Z,24.75
2017-11-07T10:52:53.027Z,23.87
2017-11-07T10:55:19.731Z,24.00
2017-11-07T10:57:46.410Z,26.67
2017-11-07T11:00:13.181Z,27.67
2017-11-07T11:02:39.747Z,26.73
2017-11-07T11:05:06.344Z,27.27
2017-11-07T11:07:33.876Z,27.70
2017-11-07T11:10:00.443Z,26.20
2017-11-07T11:12:27.004Z,27.10
2017-11-07T11:14:53.644Z,26.35
2017-11-07T11:17:20.208Z,28.65
2017-11-07T11:19:46.886Z,28.77
2017-11-07T11:22:13.544Z,28.33
2017-11-07T11:24:40.111Z,27.77
2017-11-07T11:27:06.679Z,28.10
2017-11-07T11:29:33.303Z,28.85
2017-11-07T11:31:59.861Z,29.08
2017-11-07T11:34:26.787Z,29.10
2017-11-07T11:36:54.055Z,30.10
2017-11-07T11:39:20.671Z,29.05
2017-11-07T11:41:47.235Z,28.08
2017-11-07T11:44:13.895Z,30.10
2017-11-07T11:46:40.479Z,29.30
2017-11-07T11:49:07.039Z,30.23
2017-11-07T11:51:33.697Z,30.70
2017-11-07T11:54:00.382Z,32.00
2017-11-07T11:56:27.050Z,32.60
2017-11-07T11:58:53.776Z,31.33
2017-11-07T12:01:20.356Z,31.20
2017-11-07T12:03:46.944Z,31.00
2017-11-07T12:06:13.679Z,31.42
2017-11-07T12:08:40.638Z,31.80
2017-11-07T12:11:07.235Z,32.33
2017-11-07T12:13:34.243Z,33.75
2017-11-07T12:16:00.878Z,32.95
2017-11-07T12:18:27.816Z,33.30
2017-11-07T12:20:54.831Z,31.25
2017-11-07T12:23:21.773Z,34.58
2017-11-07T12:25:48.770Z,31.70
2017-11-07T12:28:15.530Z,30.65
2017-11-07T12:30:42.139Z,33.13
2017-11-07T12:33:09.141Z,33.00
2017-11-07T12:35:35.846Z,30.95
2017-11-07T12:38:02.422Z,30.67
2017-11-07T12:40:28.987Z,30.23
2017-11-07T12:42:55.615Z,31.20
2017-11-07T12:45:22.183Z,29.27
2017-11-07T12:47:48.749Z,30.80
2017-11-07T12:50:27.693Z,30.33
2017-11-07T12:52:54.259Z,30.88
2017-11-07T12:55:20.810Z,29.05
2017-11-07T12:57:47.815Z,28.77
2017-11-07T13:00:14.375Z,28.33
2017-11-07T13:02:40.936Z,29.70
2017-11-07T13:05:07.589Z,30.77
2017-11-07T13:07:40.995Z,30.02
2017-11-07T13:10:07.602Z,25.20
2017-11-07T13:12:34.187Z,27.17
2017-11-07T13:15:00.735Z,31.48
2017-11-07T13:17:27.439Z,24.27
2017-11-07T13:19:53.998Z,28.92
2017-11-07T13:22:20.555Z,28.83
2017-11-07T13:24:47.166Z,30.95
2017-11-07T13:27:13.715Z,27.73
2017-11-07T13:29:40.259Z,29.73
2017-11-07T13:32:06.895Z,29.17
2017-11-07T13:34:33.456Z,28.58
2017-11-07T13:37:00.006Z,30.02
2017-11-07T13:39:26.827Z,29.05
2017-11-07T13:41:53.396Z,29.92
2017-11-07T13:44:20.323Z,29.73
2017-11-07T13:46:47.308Z,32.25
2017-11-07T13:49:13.875Z,29.02
2017-11-07T13:51:40.807Z,27.20
2017-11-07T13:54:07.413Z,26.92
2017-11-07T13:56:34.359Z,31.08
2017-11-07T13:59:00.947Z,27.35
2017-11-07T14:01:27.559Z,28.42
2017-11-07T14:03:54.132Z,29.20
2017-11-07T14:06:20.684Z,29.67
2017-11-07T14:08:47.311Z,28.75
2017-11-07T14:11:13.862Z,30.83
2017-11-07T14:13:40.424Z,32.78
2017-11-07T14:16:07.051Z,32.83
2017-11-07T14:18:33.620Z,31.05
2017-11-07T14:21:00.179Z,28.38
2017-11-07T14:23:26.791Z,32.45
2017-11-07T14:25:53.726Z,32.42
2017-11-07T14:28:20.283Z,33.13
2017-11-07T14:30:46.908Z,31.65
2017-11-07T14:33:13.484Z,30.45
2017-11-07T14:35:40.043Z,32.13
2017-11-07T14:38:06.665Z,30.58
2017-11-07T14:40:33.227Z,31.50
2017-11-07T14:43:00.153Z,27.45
2017-11-07T14:45:27.130Z,32.83
2017-11-07T14:47:53.703Z,32.30
2017-11-07T14:50:20.684Z,30.73
2017-11-07T14:52:47.307Z,32.53
2017-11-07T14:55:13.876Z,31.67
2017-11-07T14:57:40.803Z,32.45
2017-11-07T15:00:07.467Z,33.00
2017-11-07T15:02:34.042Z,31.23
2017-11-07T15:05:00.631Z,30.05
2017-11-07T15:07:27.234Z,33.58
2017-11-07T15:09:53.800Z,31.70
2017-11-07T15:12:20.366Z,30.40
2017-11-07T15:14:46.996Z,31.30
2017-11-07T15:17:13.564Z,32.40
2017-11-07T15:19:40.484Z,26.73
2017-11-07T15:22:07.276Z,28.30
2017-11-07T15:24:33.834Z,23.92
2017-11-07T15:27:00.383Z,25.80
2017-11-07T15:29:27.006Z,28.60
2017-11-07T15:31:53.575Z,21.30
2017-11-07T15:34:20.135Z,28.27
2017-11-07T15:36:46.754Z,28.73
2017-11-07T15:39:13.315Z,31.40
2017-11-07T15:41:39.878Z,27.40
2017-11-07T15:44:06.515Z,28.95
2017-11-07T15:46:33.448Z,30.67
2017-11-07T15:49:00.006Z,33.63
2017-11-07T15:51:26.628Z,27.33
2017-11-07T15:53:53.191Z,31.25
2017-11-07T15:56:19.753Z,33.63
2017-11-07T15:58:46.467Z,32.03
2017-11-07T16:01:13.295Z,33.55
2017-11-07T16:03:39.847Z,33.15
2017-11-07T16:06:06.495Z,33.47
2017-11-07T16:08:33.436Z,31.42
2017-11-07T16:11:00.359Z,37.38
2017-11-07T16:13:27.335Z,26.20
2017-11-07T16:15:53.911Z,31.55
2017-11-07T16:18:20.851Z,31.65
2017-11-07T16:20:47.475Z,38.00
2017-11-07T16:23:14.031Z,27.08
2017-11-07T16:25:40.596Z,29.42
2017-11-07T16:28:07.620Z,32.42
2017-11-07T16:30:34.562Z,31.45
2017-11-07T16:33:01.487Z,28.65
2017-11-07T16:35:28.523Z,28.83
2017-11-07T16:37:55.440Z,30.05
2017-11-07T16:40:21.997Z,25.35
2017-11-07T16:42:48.667Z,20.48
2017-11-07T16:45:15.259Z,28.08
2017-11-07T16:47:41.835Z,32.85
2017-11-07T16:50:09.009Z,32.95
2017-11-07T16:52:35.620Z,25.62
2017-11-07T16:55:02.195Z,31.95
2017-11-07T16:57:28.823Z,24.37
2017-11-07T16:59:55.759Z,27.60
2017-11-07T17:02:22.792Z,27.08
2017-11-07T17:04:49.423Z,24.20
2017-11-07T17:07:15.978Z,34.45
2017-11-07T17:09:42.535Z,33.80
2017-11-07T17:12:09.155Z,31.00
2017-11-07T17:14:35.715Z,34.38
2017-11-07T17:17:02.283Z,34.42
2017-11-07T17:19:28.899Z,28.85
2017-11-07T17:21:55.446Z,32.72
2017-11-07T17:24:22.359Z,27.92
2017-11-07T17:26:48.978Z,32.88
2017-11-07T17:29:15.531Z,32.53
2017-11-07T17:31:42.083Z,30.60
2017-11-07T17:34:08.760Z,33.35
2017-11-07T17:36:35.699Z,34.65
2017-11-07T17:39:02.335Z,27.83
2017-11-07T17:41:28.963Z,32.65
2017-11-07T17:43:55.523Z,34.53
2017-11-07T17:46:22.122Z,33.22
2017-11-07T17:48:48.752Z,34.15
2017-11-07T17:51:15.331Z,33.50
2017-11-07T17:53:41.887Z,34.83
2017-11-07T17:56:08.556Z,36.40
2017-11-07T17:58:35.480Z,35.70
2017-11-07T18:01:02.410Z,33.63
2017-11-07T18:03:29.575Z,29.02
2017-11-07T18:05:56.123Z,32.42
2017-11-07T18:08:22.683Z,36.42
2017-11-07T18:10:49.678Z,24.80
2017-11-07T18:13:16.244Z,35.85
2017-11-07T18:15:42.807Z,32.85
2017-11-07T18:18:09.415Z,26.77
2017-11-07T18:20:35.980Z,33.63
2017-11-07T18:23:02.539Z,29.75
2017-11-07T18:25:29.161Z,27.80
2017-11-07T18:27:55.718Z,32.40
2017-11-07T18:30:22.312Z,33.58
2017-11-07T18:32:48.927Z,33.20
2017-11-07T18:35:15.499Z,33.55
2017-11-07T18:37:42.056Z,33.97
2017-11-07T18:40:08.683Z,33.05
2017-11-07T18:42:35.272Z,32.03
2017-11-07T18:45:02.199Z,37.75
2017-11-07T18:47:29.187Z,34.88
2017-11-07T18:49:55.743Z,38.90
2017-11-07T18:52:22.431Z,35.78
2017-11-07T18:54:49.045Z,37.55
2017-11-07T18:57:15.604Z,34.95
2017-11-07T18:59:42.155Z,33.22
2017-11-07T19:02:08.811Z,35.67
2017-11-07T19:04:35.454Z,35.40
2017-11-07T19:07:02.323Z,36.03
2017-11-07T19:09:29.004Z,34.78
2017-11-07T19:11:55.983Z,35.45
2017-11-07T19:14:22.614Z,31.48
2017-11-07T19:16:49.451Z,37.30
2017-11-07T19:19:15.994Z,35.78
2017-11-07T19:21:42.570Z,27.77
2017-11-07T19:24:09.362Z,33.28
2017-11-07T19:26:35.968Z,34.33
2017-11-07T19:29:02.551Z,34.90
2017-11-07T19:31:29.242Z,33.47
2017-11-07T19:33:56.192Z,35.45
2017-11-07T19:36:22.795Z,34.50
2017-11-07T19:38:49.431Z,34.88
2017-11-07T19:41:16.040Z,31.05
2017-11-07T19:43:42.671Z,31.87
2017-11-07T19:46:09.317Z,31.35
2017-11-07T19:48:35.880Z,29.58
2017-11-07T19:51:02.440Z,31.40
2017-11-07T19:53:29.158Z,31.12
2017-11-07T19:55:55.775Z,33.85
2017-11-07T19:58:22.354Z,34.40
2017-11-07T20:00:49.016Z,35.17
2017-11-07T20:03:15.574Z,35.13
2017-11-07T20:05:42.224Z,36.22
2017-11-07T20:08:09.767Z,40.33
2017-11-07T20:10:36.589Z,36.65
2017-11-07T20:13:03.256Z,36.13
2017-11-07T20:15:29.908Z,39.10
2017-11-07T20:17:56.485Z,36.70
2017-11-07T20:20:23.438Z,36.08
2017-11-07T20:22:50.805Z,41.65
2017-11-07T20:25:17.367Z,35.42
2017-11-07T20:27:43.935Z,27.37
2017-11-07T20:30:10.546Z,29.05
2017-11-07T20:32:37.120Z,28.85
2017-11-07T20:35:04.075Z,32.72
2017-11-07T20:37:30.719Z,31.48
2017-11-07T20:39:57.294Z,32.20
2017-11-07T20:42:23.859Z,28.30
2017-11-07T20:44:50.504Z,28.17
2017-11-07T20:47:17.979Z,31.45
2017-11-07T20:49:44.539Z,25.33
2017-11-07T20:52:11.142Z,25.90
2017-11-07T20:54:37.728Z,23.25
2017-11-07T20:57:04.659Z,26.10
2017-11-07T20:59:31.651Z,24.35
2017-11-07T21:01:58.216Z,23.77
2017-11-07T21:04:24.785Z,22.73
2017-11-07T21:06:51.453Z,19.83
2017-11-07T21:09:18.372Z,18.75
2017-11-07T21:11:45.295Z,20.27
2017-11-07T21:14:12.163Z,20.48
2017-11-07T21:16:38.727Z,20.90
2017-11-07T21:19:05.311Z,22.45
2017-11-07T21:21:31.958Z,23.83
2017-11-07T21:23:58.511Z,23.92
2017-11-07T21:26:25.087Z,25.45
2017-11-07T21:28:51.711Z,26.65
2017-11-07T21:31:18.272Z,33.30
2017-11-07T21:33:45.211Z,26.05
2017-11-07T21:36:12.199Z,21.98
2017-11-07T21:38:38.770Z,23.17
2017-11-07T21:41:05.347Z,23.08
2017-11-07T21:43:32.062Z,23.42
2017-11-07T21:45:59.050Z,21.62
2017-11-07T21:48:25.620Z,20.67
2017-11-07T21:50:52.506Z,21.52
2017-11-07T21:53:26.105Z,21.17
2017-11-07T21:55:52.980Z,21.95
2017-11-07T21:58:19.695Z,21.85
2017-11-07T22:00:46.641Z,18.95
2017-11-07T22:03:13.271Z,20.77
2017-11-07T22:05:39.870Z,20.67
2017-11-07T22:08:06.414Z,20.77
2017-11-07T22:10:33.133Z,21.75
2017-11-07T22:12:59.695Z,18.75
2017-11-07T22:15:26.255Z,19.55
2017-11-07T22:17:55.243Z,17.98
2017-11-07T22:20:21.795Z,21.12
2017-11-07T22:22:48.343Z,19.65
2017-11-07T22:25:15.903Z,21.52
2017-11-07T22:27:43.239Z,20.35
2017-11-07T22:30:09.870Z,21.40
2017-11-07T22:32:36.487Z,20.75
2017-11-07T22:35:03.197Z,20.23
2017-11-07T22:37:29.747Z,21.60
2017-11-07T22:39:56.723Z,19.98
2017-11-07T22:42:23.316Z,21.35
2017-11-07T22:44:49.867Z,22.25
2017-11-07T22:47:16.474Z,21.73
2017-11-07T22:49:43.026Z,21.12
2017-11-07T22:52:09.591Z,22.62
2017-11-07T22:54:36.436Z,25.10
2017-11-07T22:57:03.012Z,23.67
2017-11-07T22:59:29.598Z,25.25
2017-11-07T23:01:56.211Z,23.50
2017-11-07T23:04:22.775Z,22.40
2017-11-07T23:06:49.740Z,22.40
2017-11-07T23:09:16.341Z,20.88
2017-11-07T23:11:42.907Z,22.50
2017-11-07T23:14:09.471Z,23.75
2017-11-07T23:16:36.458Z,23.12
2017-11-07T23:19:03.019Z,24.33
2017-11-07T23:21:29.985Z,23.20
2017-11-07T23:23:56.595Z,21.12
2017-11-07T23:26:23.167Z,23.35
2017-11-07T23:28:49.724Z,21.12
2017-11-07T23:31:16.326Z,22.27
2017-11-07T23:33:43.250Z,22.25
2017-11-07T23:36:10.176Z,22.50
2017-11-07T23:38:37.175Z,22.40
2017-11-07T23:41:03.726Z,23.10
2017-11-07T23:43:30.275Z,24.52
2017-11-07T23:45:56.887Z,22.30
2017-11-07T23:48:23.451Z,20.08
2017-11-07T23:50:50.008Z,21.17
2017-11-07T23:53:16.996Z,22.35
2017-11-07T23:55:43.574Z,22.23
2017-11-07T23:58:10.140Z,23.45
